sensor_id;sensor_type;location;lat;lon;timestamp;P1;durP1;ratioP1;P2;durP2;ratioP2
805;SDS011;385;48.502;9.230;2022-08-19T00:00:50;110.07;;;30.30;;
805;SDS011;385;48.502;9.230;2022-08-19T00:03:17;96.77;;;28.57;;
805;SDS011;385;48.502;9.230;2022-08-19T00:05:44;93.50;;;29.23;;
805;SDS011;385;48.502;9.230;2022-08-19T00:08:11;104.93;;;28.10;;
805;SDS011;385;48.502;9.230;2022-08-19T00:10:39;102.83;;;29.17;;
805;SDS011;385;48.502;9.230;2022-08-19T00:13:06;106.93;;;30.13;;
805;SDS011;385;48.502;9.230;2022-08-19T00:15:33;115.43;;;29.90;;
805;SDS011;385;48.502;9.230;2022-08-19T00:18:00;102.23;;;30.40;;
805;SDS011;385;48.502;9.230;2022-08-19T00:20:27;133.07;;;30.37;;
805;SDS011;385;48.502;9.230;2022-08-19T00:22:54;105.13;;;30.70;;
805;SDS011;385;48.502;9.230;2022-08-19T00:25:21;103.63;;;30.13;;
805;SDS011;385;48.502;9.230;2022-08-19T00:27:50;106.13;;;29.73;;
805;SDS011;385;48.502;9.230;2022-08-19T00:30:17;98.10;;;31.47;;
805;SDS011;385;48.502;9.230;2022-08-19T00:32:44;131.50;;;32.20;;
805;SDS011;385;48.502;9.230;2022-08-19T00:35:11;116.57;;;33.33;;
805;SDS011;385;48.502;9.230;2022-08-19T00:37:39;105.63;;;29.30;;
805;SDS011;385;48.502;9.230;2022-08-19T00:40:08;111.23;;;30.00;;
805;SDS011;385;48.502;9.230;2022-08-19T00:42:37;107.17;;;29.43;;
805;SDS011;385;48.502;9.230;2022-08-19T00:45:10;116.27;;;28.40;;
805;SDS011;385;48.502;9.230;2022-08-19T00:47:37;104.50;;;29.47;;
805;SDS011;385;48.502;9.230;2022-08-19T00:50:05;109.13;;;30.20;;
805;SDS011;385;48.502;9.230;2022-08-19T00:52:35;116.33;;;28.43;;
805;SDS011;385;48.502;9.230;2022-08-19T00:55:04;102.23;;;29.20;;
805;SDS011;385;48.502;9.230;2022-08-19T00:57:35;118.97;;;30.80;;
805;SDS011;385;48.502;9.230;2022-08-19T01:00:04;111.40;;;29.90;;
805;SDS011;385;48.502;9.230;2022-08-19T01:02:33;113.37;;;30.83;;
805;SDS011;385;48.502;9.230;2022-08-19T01:05:01;114.07;;;28.97;;
805;SDS011;385;48.502;9.230;2022-08-19T01:07:29;100.37;;;27.70;;
805;SDS011;385;48.502;9.230;2022-08-19T01:09:55;104.37;;;30.50;;
805;SDS011;385;48.502;9.230;2022-08-19T01:12:23;119.77;;;29.30;;
805;SDS011;385;48.502;9.230;2022-08-19T01:14:50;120.80;;;28.37;;
805;SDS011;385;48.502;9.230;2022-08-19T01:17:18;98.43;;;29.10;;
805;SDS011;385;48.502;9.230;2022-08-19T01:19:47;109.20;;;29.10;;
805;SDS011;385;48.502;9.230;2022-08-19T01:22:16;127.63;;;31.30;;
805;SDS011;385;48.502;9.230;2022-08-19T01:24:45;125.87;;;31.20;;
805;SDS011;385;48.502;9.230;2022-08-19T01:27:12;123.70;;;30.73;;
805;SDS011;385;48.502;9.230;2022-08-19T01:29:41;118.37;;;30.63;;
805;SDS011;385;48.502;9.230;2022-08-19T01:32:11;109.17;;;29.70;;
805;SDS011;385;48.502;9.230;2022-08-19T01:34:38;120.57;;;31.27;;
805;SDS011;385;48.502;9.230;2022-08-19T01:37:06;117.10;;;29.20;;
805;SDS011;385;48.502;9.230;2022-08-19T01:39:36;117.63;;;30.43;;
805;SDS011;385;48.502;9.230;2022-08-19T01:42:05;113.17;;;29.47;;
805;SDS011;385;48.502;9.230;2022-08-19T01:44:35;125.53;;;29.40;;
805;SDS011;385;48.502;9.230;2022-08-19T01:47:02;117.60;;;29.70;;
805;SDS011;385;48.502;9.230;2022-08-19T01:49:30;104.20;;;30.40;;
805;SDS011;385;48.502;9.230;2022-08-19T01:51:58;122.23;;;30.93;;
805;SDS011;385;48.502;9.230;2022-08-19T01:54:26;106.87;;;29.60;;
805;SDS011;385;48.502;9.230;2022-08-19T01:56:56;132.37;;;30.80;;
805;SDS011;385;48.502;9.230;2022-08-19T01:59:27;98.33;;;29.53;;
805;SDS011;385;48.502;9.230;2022-08-19T02:01:54;108.47;;;29.63;;
805;SDS011;385;48.502;9.230;2022-08-19T02:04:22;106.30;;;28.47;;
805;SDS011;385;48.502;9.230;2022-08-19T02:06:50;129.23;;;28.90;;
805;SDS011;385;48.502;9.230;2022-08-19T02:09:17;116.33;;;29.87;;
805;SDS011;385;48.502;9.230;2022-08-19T02:11:44;99.30;;;27.60;;
805;SDS011;385;48.502;9.230;2022-08-19T02:14:11;104.63;;;27.63;;
805;SDS011;385;48.502;9.230;2022-08-19T02:16:40;107.93;;;28.07;;
805;SDS011;385;48.502;9.230;2022-08-19T02:19:07;113.80;;;27.20;;
805;SDS011;385;48.502;9.230;2022-08-19T02:21:35;111.93;;;27.37;;
805;SDS011;385;48.502;9.230;2022-08-19T02:24:03;110.47;;;26.70;;
805;SDS011;385;48.502;9.230;2022-08-19T02:26:31;96.03;;;26.50;;
805;SDS011;385;48.502;9.230;2022-08-19T02:28:58;111.67;;;28.47;;
805;SDS011;385;48.502;9.230;2022-08-19T02:31:25;100.57;;;26.60;;
805;SDS011;385;48.502;9.230;2022-08-19T02:33:54;106.57;;;27.63;;
805;SDS011;385;48.502;9.230;2022-08-19T02:36:21;113.27;;;27.97;;
805;SDS011;385;48.502;9.230;2022-08-19T02:38:49;121.17;;;27.20;;
805;SDS011;385;48.502;9.230;2022-08-19T02:41:16;127.87;;;28.73;;
805;SDS011;385;48.502;9.230;2022-08-19T02:43:43;109.00;;;29.23;;
805;SDS011;385;48.502;9.230;2022-08-19T02:46:11;105.63;;;27.07;;
805;SDS011;385;48.502;9.230;2022-08-19T02:48:38;112.67;;;26.60;;
805;SDS011;385;48.502;9.230;2022-08-19T02:51:07;119.43;;;26.97;;
805;SDS011;385;48.502;9.230;2022-08-19T02:53:34;120.97;;;26.37;;
805;SDS011;385;48.502;9.230;2022-08-19T02:56:05;106.83;;;27.97;;
805;SDS011;385;48.502;9.230;2022-08-19T02:58:32;113.60;;;28.00;;
805;SDS011;385;48.502;9.230;2022-08-19T03:01:00;113.23;;;27.60;;
805;SDS011;385;48.502;9.230;2022-08-19T03:03:27;115.90;;;27.17;;
805;SDS011;385;48.502;9.230;2022-08-19T03:06:04;124.23;;;27.90;;
805;SDS011;385;48.502;9.230;2022-08-19T03:08:33;111.47;;;28.83;;
805;SDS011;385;48.502;9.230;2022-08-19T03:11:00;110.50;;;26.50;;
805;SDS011;385;48.502;9.230;2022-08-19T03:13:27;118.83;;;29.57;;
805;SDS011;385;48.502;9.230;2022-08-19T03:15:54;106.00;;;28.27;;
805;SDS011;385;48.502;9.230;2022-08-19T03:18:22;108.47;;;26.63;;
805;SDS011;385;48.502;9.230;2022-08-19T03:20:51;111.50;;;28.30;;
805;SDS011;385;48.502;9.230;2022-08-19T03:23:19;122.63;;;27.70;;
805;SDS011;385;48.502;9.230;2022-08-19T03:25:49;127.10;;;30.37;;
805;SDS011;385;48.502;9.230;2022-08-19T03:28:17;126.43;;;28.87;;
805;SDS011;385;48.502;9.230;2022-08-19T03:30:54;126.17;;;29.10;;
805;SDS011;385;48.502;9.230;2022-08-19T03:33:22;118.73;;;27.40;;
805;SDS011;385;48.502;9.230;2022-08-19T03:35:58;117.77;;;28.73;;
805;SDS011;385;48.502;9.230;2022-08-19T03:38:26;104.60;;;27.77;;
805;SDS011;385;48.502;9.230;2022-08-19T03:40:54;114.63;;;28.07;;
805;SDS011;385;48.502;9.230;2022-08-19T03:43:21;116.57;;;27.47;;
805;SDS011;385;48.502;9.230;2022-08-19T03:45:48;108.33;;;28.63;;
805;SDS011;385;48.502;9.230;2022-08-19T03:48:16;119.20;;;28.30;;
805;SDS011;385;48.502;9.230;2022-08-19T03:50:42;128.90;;;29.17;;
805;SDS011;385;48.502;9.230;2022-08-19T03:53:10;144.93;;;28.90;;
805;SDS011;385;48.502;9.230;2022-08-19T03:55:38;132.00;;;29.30;;
805;SDS011;385;48.502;9.230;2022-08-19T03:58:07;109.53;;;26.80;;
805;SDS011;385;48.502;9.230;2022-08-19T04:00:35;104.10;;;24.80;;
805;SDS011;385;48.502;9.230;2022-08-19T04:03:02;115.87;;;27.97;;
805;SDS011;385;48.502;9.230;2022-08-19T04:05:30;130.73;;;27.90;;
805;SDS011;385;48.502;9.230;2022-08-19T04:07:57;117.40;;;27.30;;
805;SDS011;385;48.502;9.230;2022-08-19T04:10:24;111.90;;;27.03;;
805;SDS011;385;48.502;9.230;2022-08-19T04:12:51;121.43;;;28.30;;
805;SDS011;385;48.502;9.230;2022-08-19T04:15:19;115.00;;;28.03;;
805;SDS011;385;48.502;9.230;2022-08-19T04:17:46;125.20;;;29.83;;
805;SDS011;385;48.502;9.230;2022-08-19T04:20:13;108.93;;;29.30;;
805;SDS011;385;48.502;9.230;2022-08-19T04:22:40;114.80;;;27.97;;
805;SDS011;385;48.502;9.230;2022-08-19T04:25:07;118.53;;;29.10;;
805;SDS011;385;48.502;9.230;2022-08-19T04:27:34;135.17;;;31.43;;
805;SDS011;385;48.502;9.230;2022-08-19T04:30:02;138.67;;;29.33;;
805;SDS011;385;48.502;9.230;2022-08-19T04:32:31;117.70;;;30.60;;
805;SDS011;385;48.502;9.230;2022-08-19T04:35:00;129.70;;;30.60;;
805;SDS011;385;48.502;9.230;2022-08-19T04:37:27;119.30;;;29.43;;
805;SDS011;385;48.502;9.230;2022-08-19T04:39:57;109.93;;;30.13;;
805;SDS011;385;48.502;9.230;2022-08-19T04:42:41;122.50;;;28.93;;
805;SDS011;385;48.502;9.230;2022-08-19T04:45:10;112.97;;;29.80;;
805;SDS011;385;48.502;9.230;2022-08-19T04:47:40;128.47;;;30.37;;
805;SDS011;385;48.502;9.230;2022-08-19T04:50:08;135.10;;;31.10;;
805;SDS011;385;48.502;9.230;2022-08-19T04:52:36;121.93;;;29.67;;
805;SDS011;385;48.502;9.230;2022-08-19T04:55:08;118.83;;;30.20;;
805;SDS011;385;48.502;9.230;2022-08-19T04:57:35;104.43;;;29.10;;
805;SDS011;385;48.502;9.230;2022-08-19T05:00:06;119.37;;;30.93;;
805;SDS011;385;48.502;9.230;2022-08-19T05:02:33;123.00;;;31.67;;
805;SDS011;385;48.502;9.230;2022-08-19T05:05:02;129.40;;;32.90;;
805;SDS011;385;48.502;9.230;2022-08-19T05:07:31;128.37;;;31.77;;
805;SDS011;385;48.502;9.230;2022-08-19T05:09:58;132.37;;;29.97;;
805;SDS011;385;48.502;9.230;2022-08-19T05:12:25;119.00;;;28.27;;
805;SDS011;385;48.502;9.230;2022-08-19T05:14:53;125.40;;;29.20;;
805;SDS011;385;48.502;9.230;2022-08-19T05:17:21;108.00;;;28.00;;
805;SDS011;385;48.502;9.230;2022-08-19T05:19:48;124.63;;;30.10;;
805;SDS011;385;48.502;9.230;2022-08-19T05:22:34;120.53;;;29.73;;
805;SDS011;385;48.502;9.230;2022-08-19T05:25:03;117.17;;;27.30;;
805;SDS011;385;48.502;9.230;2022-08-19T05:27:31;131.80;;;29.60;;
805;SDS011;385;48.502;9.230;2022-08-19T05:29:58;119.40;;;30.77;;
805;SDS011;385;48.502;9.230;2022-08-19T05:32:26;133.53;;;30.60;;
805;SDS011;385;48.502;9.230;2022-08-19T05:34:54;125.20;;;28.10;;
805;SDS011;385;48.502;9.230;2022-08-19T05:37:21;106.20;;;27.20;;
805;SDS011;385;48.502;9.230;2022-08-19T05:39:49;102.07;;;27.73;;
805;SDS011;385;48.502;9.230;2022-08-19T05:42:16;129.17;;;30.63;;
805;SDS011;385;48.502;9.230;2022-08-19T05:44:45;98.23;;;29.10;;
805;SDS011;385;48.502;9.230;2022-08-19T05:47:14;98.97;;;29.20;;
805;SDS011;385;48.502;9.230;2022-08-19T05:49:41;111.77;;;28.67;;
805;SDS011;385;48.502;9.230;2022-08-19T05:52:10;97.43;;;28.77;;
805;SDS011;385;48.502;9.230;2022-08-19T05:54:39;116.30;;;28.30;;
805;SDS011;385;48.502;9.230;2022-08-19T05:57:09;97.40;;;27.77;;
805;SDS011;385;48.502;9.230;2022-08-19T05:59:36;112.80;;;29.27;;
805;SDS011;385;48.502;9.230;2022-08-19T06:02:04;101.20;;;28.97;;
805;SDS011;385;48.502;9.230;2022-08-19T06:04:31;133.43;;;31.57;;
805;SDS011;385;48.502;9.230;2022-08-19T06:06:58;116.07;;;29.93;;
805;SDS011;385;48.502;9.230;2022-08-19T06:09:26;107.80;;;28.47;;
805;SDS011;385;48.502;9.230;2022-08-19T06:11:54;121.63;;;29.10;;
805;SDS011;385;48.502;9.230;2022-08-19T06:14:26;108.83;;;28.70;;
805;SDS011;385;48.502;9.230;2022-08-19T06:16:55;104.33;;;29.40;;
805;SDS011;385;48.502;9.230;2022-08-19T06:19:25;98.10;;;29.23;;
805;SDS011;385;48.502;9.230;2022-08-19T06:21:55;94.00;;;29.00;;
805;SDS011;385;48.502;9.230;2022-08-19T06:24:23;90.83;;;31.20;;
805;SDS011;385;48.502;9.230;2022-08-19T06:26:52;112.60;;;31.20;;
805;SDS011;385;48.502;9.230;2022-08-19T06:29:20;99.43;;;32.03;;
805;SDS011;385;48.502;9.230;2022-08-19T06:31:50;114.53;;;31.40;;
805;SDS011;385;48.502;9.230;2022-08-19T06:34:18;101.33;;;30.83;;
805;SDS011;385;48.502;9.230;2022-08-19T06:36:47;117.90;;;31.10;;
805;SDS011;385;48.502;9.230;2022-08-19T06:39:16;105.53;;;30.80;;
805;SDS011;385;48.502;9.230;2022-08-19T06:41:47;100.53;;;30.20;;
805;SDS011;385;48.502;9.230;2022-08-19T06:44:15;105.50;;;30.80;;
805;SDS011;385;48.502;9.230;2022-08-19T06:46:43;106.30;;;32.17;;
805;SDS011;385;48.502;9.230;2022-08-19T06:49:11;107.23;;;31.10;;
805;SDS011;385;48.502;9.230;2022-08-19T06:51:40;114.77;;;30.77;;
805;SDS011;385;48.502;9.230;2022-08-19T06:54:08;125.43;;;33.60;;
805;SDS011;385;48.502;9.230;2022-08-19T06:56:35;106.40;;;31.90;;
805;SDS011;385;48.502;9.230;2022-08-19T06:59:03;98.73;;;31.87;;
805;SDS011;385;48.502;9.230;2022-08-19T07:01:33;90.07;;;31.93;;
805;SDS011;385;48.502;9.230;2022-08-19T07:04:03;92.27;;;32.50;;
805;SDS011;385;48.502;9.230;2022-08-19T07:06:31;89.83;;;33.13;;
805;SDS011;385;48.502;9.230;2022-08-19T07:08:59;92.90;;;32.40;;
805;SDS011;385;48.502;9.230;2022-08-19T07:11:26;92.73;;;32.20;;
805;SDS011;385;48.502;9.230;2022-08-19T07:13:53;105.00;;;33.87;;
805;SDS011;385;48.502;9.230;2022-08-19T07:16:20;97.37;;;32.03;;
805;SDS011;385;48.502;9.230;2022-08-19T07:18:48;93.63;;;31.90;;
805;SDS011;385;48.502;9.230;2022-08-19T07:21:16;91.03;;;30.30;;
805;SDS011;385;48.502;9.230;2022-08-19T07:23:45;94.13;;;32.10;;
805;SDS011;385;48.502;9.230;2022-08-19T07:26:13;96.57;;;31.00;;
805;SDS011;385;48.502;9.230;2022-08-19T07:28:41;95.10;;;33.07;;
805;SDS011;385;48.502;9.230;2022-08-19T07:31:09;93.67;;;31.13;;
805;SDS011;385;48.502;9.230;2022-08-19T07:33:37;92.07;;;32.37;;
805;SDS011;385;48.502;9.230;2022-08-19T07:36:05;82.83;;;31.20;;
805;SDS011;385;48.502;9.230;2022-08-19T07:38:35;102.87;;;33.97;;
805;SDS011;385;48.502;9.230;2022-08-19T07:41:04;97.33;;;31.90;;
805;SDS011;385;48.502;9.230;2022-08-19T07:43:32;92.33;;;31.60;;
805;SDS011;385;48.502;9.230;2022-08-19T07:45:59;105.87;;;33.90;;
805;SDS011;385;48.502;9.230;2022-08-19T07:48:27;89.57;;;33.60;;
805;SDS011;385;48.502;9.230;2022-08-19T07:50:57;93.27;;;33.37;;
805;SDS011;385;48.502;9.230;2022-08-19T07:53:27;96.23;;;35.63;;
805;SDS011;385;48.502;9.230;2022-08-19T07:55:55;100.93;;;35.23;;
805;SDS011;385;48.502;9.230;2022-08-19T07:58:28;87.73;;;32.27;;
805;SDS011;385;48.502;9.230;2022-08-19T08:00:55;94.27;;;32.10;;
805;SDS011;385;48.502;9.230;2022-08-19T08:03:22;89.00;;;33.17;;
805;SDS011;385;48.502;9.230;2022-08-19T08:06:10;90.90;;;32.70;;
805;SDS011;385;48.502;9.230;2022-08-19T08:08:55;104.80;;;34.03;;
805;SDS011;385;48.502;9.230;2022-08-19T08:11:41;111.00;;;35.50;;
805;SDS011;385;48.502;9.230;2022-08-19T08:14:16;93.97;;;32.90;;
805;SDS011;385;48.502;9.230;2022-08-19T08:16:43;91.90;;;33.47;;
805;SDS011;385;48.502;9.230;2022-08-19T08:22:07;108.33;;;35.10;;
805;SDS011;385;48.502;9.230;2022-08-19T08:24:59;88.10;;;32.10;;
805;SDS011;385;48.502;9.230;2022-08-19T08:27:30;96.33;;;34.13;;
805;SDS011;385;48.502;9.230;2022-08-19T08:29:58;112.63;;;35.67;;
805;SDS011;385;48.502;9.230;2022-08-19T08:32:25;89.37;;;31.30;;
805;SDS011;385;48.502;9.230;2022-08-19T08:34:52;105.53;;;33.40;;
805;SDS011;385;48.502;9.230;2022-08-19T08:37:20;124.70;;;34.80;;
805;SDS011;385;48.502;9.230;2022-08-19T08:39:47;109.93;;;33.90;;
805;SDS011;385;48.502;9.230;2022-08-19T08:42:17;106.73;;;34.10;;
805;SDS011;385;48.502;9.230;2022-08-19T08:44:53;117.37;;;33.27;;
805;SDS011;385;48.502;9.230;2022-08-19T08:47:29;107.60;;;33.27;;
805;SDS011;385;48.502;9.230;2022-08-19T08:50:01;101.67;;;33.20;;
805;SDS011;385;48.502;9.230;2022-08-19T08:52:47;106.53;;;34.63;;
805;SDS011;385;48.502;9.230;2022-08-19T08:55:17;103.53;;;33.33;;
805;SDS011;385;48.502;9.230;2022-08-19T08:57:49;116.23;;;35.43;;
805;SDS011;385;48.502;9.230;2022-08-19T09:00:20;118.67;;;33.77;;
805;SDS011;385;48.502;9.230;2022-08-19T09:02:51;111.33;;;35.70;;
805;SDS011;385;48.502;9.230;2022-08-19T09:05:18;115.83;;;33.80;;
805;SDS011;385;48.502;9.230;2022-08-19T09:07:48;124.97;;;36.17;;
805;SDS011;385;48.502;9.230;2022-08-19T09:10:21;124.87;;;34.83;;
805;SDS011;385;48.502;9.230;2022-08-19T09:12:53;113.17;;;34.37;;
805;SDS011;385;48.502;9.230;2022-08-19T09:15:25;98.93;;;32.63;;
805;SDS011;385;48.502;9.230;2022-08-19T09:18:19;105.80;;;34.50;;
805;SDS011;385;48.502;9.230;2022-08-19T09:20:46;106.77;;;33.30;;
805;SDS011;385;48.502;9.230;2022-08-19T09:23:14;112.47;;;35.00;;
805;SDS011;385;48.502;9.230;2022-08-19T09:25:41;124.63;;;35.47;;
805;SDS011;385;48.502;9.230;2022-08-19T09:28:08;132.10;;;34.60;;
805;SDS011;385;48.502;9.230;2022-08-19T09:30:38;103.23;;;33.83;;
805;SDS011;385;48.502;9.230;2022-08-19T09:33:06;116.83;;;34.23;;
805;SDS011;385;48.502;9.230;2022-08-19T09:35:35;104.20;;;33.40;;
805;SDS011;385;48.502;9.230;2022-08-19T09:38:02;112.80;;;32.90;;
805;SDS011;385;48.502;9.230;2022-08-19T09:40:30;128.73;;;36.10;;
805;SDS011;385;48.502;9.230;2022-08-19T09:42:57;105.60;;;31.37;;
805;SDS011;385;48.502;9.230;2022-08-19T09:45:27;118.20;;;32.47;;
805;SDS011;385;48.502;9.230;2022-08-19T09:47:54;113.57;;;32.87;;
805;SDS011;385;48.502;9.230;2022-08-19T09:50:23;121.20;;;34.37;;
805;SDS011;385;48.502;9.230;2022-08-19T09:52:51;124.37;;;34.23;;
805;SDS011;385;48.502;9.230;2022-08-19T09:55:19;117.30;;;33.73;;
805;SDS011;385;48.502;9.230;2022-08-19T09:57:46;122.73;;;33.90;;
805;SDS011;385;48.502;9.230;2022-08-19T10:00:13;112.37;;;31.90;;
805;SDS011;385;48.502;9.230;2022-08-19T10:02:41;132.23;;;34.50;;
805;SDS011;385;48.502;9.230;2022-08-19T10:05:08;122.23;;;33.40;;
805;SDS011;385;48.502;9.230;2022-08-19T10:07:54;109.27;;;30.77;;
805;SDS011;385;48.502;9.230;2022-08-19T10:10:22;119.77;;;32.40;;
805;SDS011;385;48.502;9.230;2022-08-19T10:12:49;128.27;;;32.23;;
805;SDS011;385;48.502;9.230;2022-08-19T10:15:16;119.67;;;33.67;;
805;SDS011;385;48.502;9.230;2022-08-19T10:17:45;119.83;;;31.60;;
805;SDS011;385;48.502;9.230;2022-08-19T10:20:12;104.83;;;31.80;;
805;SDS011;385;48.502;9.230;2022-08-19T10:22:45;91.90;;;31.50;;
805;SDS011;385;48.502;9.230;2022-08-19T10:25:13;113.30;;;32.50;;
805;SDS011;385;48.502;9.230;2022-08-19T10:27:41;114.20;;;32.17;;
805;SDS011;385;48.502;9.230;2022-08-19T10:30:09;109.10;;;33.07;;
805;SDS011;385;48.502;9.230;2022-08-19T10:32:36;137.53;;;35.67;;
805;SDS011;385;48.502;9.230;2022-08-19T10:35:03;90.63;;;30.90;;
805;SDS011;385;48.502;9.230;2022-08-19T10:38:05;93.87;;;31.57;;
805;SDS011;385;48.502;9.230;2022-08-19T10:40:36;103.67;;;31.63;;
805;SDS011;385;48.502;9.230;2022-08-19T10:43:04;124.83;;;33.60;;
805;SDS011;385;48.502;9.230;2022-08-19T10:45:31;114.40;;;31.50;;
805;SDS011;385;48.502;9.230;2022-08-19T10:47:58;114.87;;;33.30;;
805;SDS011;385;48.502;9.230;2022-08-19T10:50:25;115.77;;;32.77;;
805;SDS011;385;48.502;9.230;2022-08-19T10:53:10;120.53;;;34.50;;
805;SDS011;385;48.502;9.230;2022-08-19T10:55:38;116.10;;;33.20;;
805;SDS011;385;48.502;9.230;2022-08-19T10:58:23;123.90;;;34.80;;
805;SDS011;385;48.502;9.230;2022-08-19T11:00:51;117.33;;;32.83;;
805;SDS011;385;48.502;9.230;2022-08-19T11:03:19;103.10;;;32.20;;
805;SDS011;385;48.502;9.230;2022-08-19T11:05:46;114.80;;;33.00;;
805;SDS011;385;48.502;9.230;2022-08-19T11:08:13;115.33;;;31.13;;
805;SDS011;385;48.502;9.230;2022-08-19T11:10:42;88.53;;;28.80;;
805;SDS011;385;48.502;9.230;2022-08-19T11:13:09;111.87;;;31.80;;
805;SDS011;385;48.502;9.230;2022-08-19T11:15:36;96.10;;;29.20;;
805;SDS011;385;48.502;9.230;2022-08-19T11:18:04;99.27;;;29.57;;
805;SDS011;385;48.502;9.230;2022-08-19T11:20:31;94.60;;;27.17;;
805;SDS011;385;48.502;9.230;2022-08-19T11:22:58;113.13;;;30.43;;
805;SDS011;385;48.502;9.230;2022-08-19T11:25:25;103.83;;;30.93;;
805;SDS011;385;48.502;9.230;2022-08-19T11:27:54;114.57;;;32.03;;
805;SDS011;385;48.502;9.230;2022-08-19T11:30:21;99.00;;;32.10;;
805;SDS011;385;48.502;9.230;2022-08-19T11:32:48;93.67;;;30.63;;
805;SDS011;385;48.502;9.230;2022-08-19T11:35:15;104.80;;;31.83;;
805;SDS011;385;48.502;9.230;2022-08-19T11:37:45;108.77;;;29.70;;
805;SDS011;385;48.502;9.230;2022-08-19T11:40:12;114.20;;;32.60;;
805;SDS011;385;48.502;9.230;2022-08-19T11:42:39;118.20;;;33.40;;
805;SDS011;385;48.502;9.230;2022-08-19T11:45:23;106.10;;;33.27;;
805;SDS011;385;48.502;9.230;2022-08-19T11:47:50;122.50;;;32.63;;
805;SDS011;385;48.502;9.230;2022-08-19T11:50:18;115.40;;;33.47;;
805;SDS011;385;48.502;9.230;2022-08-19T11:52:45;117.73;;;33.17;;
805;SDS011;385;48.502;9.230;2022-08-19T11:55:14;85.13;;;29.30;;
805;SDS011;385;48.502;9.230;2022-08-19T11:57:42;97.30;;;31.50;;
805;SDS011;385;48.502;9.230;2022-08-19T12:00:09;101.03;;;31.90;;
805;SDS011;385;48.502;9.230;2022-08-19T12:02:39;114.00;;;31.50;;
805;SDS011;385;48.502;9.230;2022-08-19T12:05:07;114.93;;;32.13;;
805;SDS011;385;48.502;9.230;2022-08-19T12:07:34;125.77;;;34.40;;
805;SDS011;385;48.502;9.230;2022-08-19T12:10:02;117.93;;;32.10;;
805;SDS011;385;48.502;9.230;2022-08-19T12:12:29;111.87;;;33.67;;
805;SDS011;385;48.502;9.230;2022-08-19T12:14:56;138.90;;;34.17;;
805;SDS011;385;48.502;9.230;2022-08-19T12:17:24;110.37;;;34.67;;
805;SDS011;385;48.502;9.230;2022-08-19T12:19:53;105.67;;;32.90;;
805;SDS011;385;48.502;9.230;2022-08-19T12:22:22;104.17;;;30.60;;
805;SDS011;385;48.502;9.230;2022-08-19T12:24:49;107.57;;;32.40;;
805;SDS011;385;48.502;9.230;2022-08-19T12:27:18;99.33;;;31.57;;
805;SDS011;385;48.502;9.230;2022-08-19T12:29:45;101.50;;;32.17;;
805;SDS011;385;48.502;9.230;2022-08-19T12:32:12;95.43;;;32.40;;
805;SDS011;385;48.502;9.230;2022-08-19T12:34:39;95.00;;;31.03;;
805;SDS011;385;48.502;9.230;2022-08-19T12:37:08;94.23;;;30.00;;
805;SDS011;385;48.502;9.230;2022-08-19T12:39:36;88.87;;;29.93;;
805;SDS011;385;48.502;9.230;2022-08-19T12:42:04;95.23;;;32.33;;
805;SDS011;385;48.502;9.230;2022-08-19T12:44:32;103.03;;;32.70;;
805;SDS011;385;48.502;9.230;2022-08-19T12:46:59;112.43;;;33.23;;
805;SDS011;385;48.502;9.230;2022-08-19T12:49:27;80.10;;;29.90;;
805;SDS011;385;48.502;9.230;2022-08-19T12:51:54;90.83;;;31.13;;
805;SDS011;385;48.502;9.230;2022-08-19T12:54:24;91.87;;;29.67;;
805;SDS011;385;48.502;9.230;2022-08-19T12:56:51;91.47;;;29.57;;
805;SDS011;385;48.502;9.230;2022-08-19T12:59:19;83.77;;;29.10;;
805;SDS011;385;48.502;9.230;2022-08-19T13:01:46;84.63;;;29.07;;
805;SDS011;385;48.502;9.230;2022-08-19T13:04:13;83.63;;;31.20;;
805;SDS011;385;48.502;9.230;2022-08-19T13:06:41;92.37;;;28.87;;
805;SDS011;385;48.502;9.230;2022-08-19T13:09:08;91.40;;;30.10;;
805;SDS011;385;48.502;9.230;2022-08-19T13:11:37;93.93;;;31.33;;
805;SDS011;385;48.502;9.230;2022-08-19T13:14:05;92.50;;;31.33;;
805;SDS011;385;48.502;9.230;2022-08-19T13:19:40;95.40;;;31.17;;
805;SDS011;385;48.502;9.230;2022-08-19T13:22:07;85.00;;;29.70;;
805;SDS011;385;48.502;9.230;2022-08-19T13:24:34;85.77;;;29.17;;
805;SDS011;385;48.502;9.230;2022-08-19T13:27:04;93.23;;;29.60;;
805;SDS011;385;48.502;9.230;2022-08-19T13:29:31;101.83;;;30.07;;
805;SDS011;385;48.502;9.230;2022-08-19T13:32:16;115.70;;;30.30;;
805;SDS011;385;48.502;9.230;2022-08-19T13:35:00;92.50;;;29.00;;
805;SDS011;385;48.502;9.230;2022-08-19T13:37:27;87.60;;;29.33;;
805;SDS011;385;48.502;9.230;2022-08-19T13:40:07;84.43;;;28.20;;
805;SDS011;385;48.502;9.230;2022-08-19T13:42:40;94.57;;;30.63;;
805;SDS011;385;48.502;9.230;2022-08-19T13:45:08;110.37;;;29.07;;
805;SDS011;385;48.502;9.230;2022-08-19T13:47:36;94.77;;;30.20;;
805;SDS011;385;48.502;9.230;2022-08-19T13:50:09;99.63;;;30.30;;
805;SDS011;385;48.502;9.230;2022-08-19T13:52:37;91.40;;;29.90;;
805;SDS011;385;48.502;9.230;2022-08-19T13:55:05;86.43;;;28.70;;
805;SDS011;385;48.502;9.230;2022-08-19T13:57:32;104.33;;;29.43;;
805;SDS011;385;48.502;9.230;2022-08-19T14:00:07;88.63;;;29.40;;
805;SDS011;385;48.502;9.230;2022-08-19T14:02:35;98.90;;;27.93;;
805;SDS011;385;48.502;9.230;2022-08-19T14:05:03;92.43;;;27.30;;
805;SDS011;385;48.502;9.230;2022-08-19T14:07:30;93.63;;;29.63;;
805;SDS011;385;48.502;9.230;2022-08-19T14:09:57;84.40;;;27.83;;
805;SDS011;385;48.502;9.230;2022-08-19T14:12:25;81.97;;;27.70;;
805;SDS011;385;48.502;9.230;2022-08-19T14:14:52;96.40;;;28.00;;
805;SDS011;385;48.502;9.230;2022-08-19T14:17:20;104.20;;;29.93;;
805;SDS011;385;48.502;9.230;2022-08-19T14:19:47;83.50;;;29.10;;
805;SDS011;385;48.502;9.230;2022-08-19T14:22:14;98.43;;;29.10;;
805;SDS011;385;48.502;9.230;2022-08-19T14:24:41;90.13;;;30.30;;
805;SDS011;385;48.502;9.230;2022-08-19T14:27:08;88.63;;;29.07;;
805;SDS011;385;48.502;9.230;2022-08-19T14:29:36;94.43;;;29.20;;
805;SDS011;385;48.502;9.230;2022-08-19T14:32:03;109.40;;;29.17;;
805;SDS011;385;48.502;9.230;2022-08-19T14:34:32;129.67;;;30.73;;
805;SDS011;385;48.502;9.230;2022-08-19T14:37:20;105.20;;;29.10;;
805;SDS011;385;48.502;9.230;2022-08-19T14:39:47;87.37;;;27.53;;
805;SDS011;385;48.502;9.230;2022-08-19T14:42:15;103.40;;;28.27;;
805;SDS011;385;48.502;9.230;2022-08-19T14:44:42;95.43;;;28.13;;
805;SDS011;385;48.502;9.230;2022-08-19T14:47:09;100.50;;;28.27;;
805;SDS011;385;48.502;9.230;2022-08-19T14:49:38;99.23;;;28.37;;
805;SDS011;385;48.502;9.230;2022-08-19T14:52:05;108.73;;;29.80;;
805;SDS011;385;48.502;9.230;2022-08-19T14:54:32;106.77;;;29.10;;
805;SDS011;385;48.502;9.230;2022-08-19T14:56:59;104.83;;;29.20;;
805;SDS011;385;48.502;9.230;2022-08-19T14:59:27;106.07;;;28.10;;
805;SDS011;385;48.502;9.230;2022-08-19T15:01:54;105.77;;;30.87;;
805;SDS011;385;48.502;9.230;2022-08-19T15:04:21;90.17;;;27.70;;
805;SDS011;385;48.502;9.230;2022-08-19T15:06:49;94.20;;;28.50;;
805;SDS011;385;48.502;9.230;2022-08-19T15:09:16;99.13;;;29.03;;
805;SDS011;385;48.502;9.230;2022-08-19T15:11:43;130.73;;;30.10;;
805;SDS011;385;48.502;9.230;2022-08-19T15:14:11;96.17;;;28.60;;
805;SDS011;385;48.502;9.230;2022-08-19T15:16:40;110.77;;;29.23;;
805;SDS011;385;48.502;9.230;2022-08-19T15:19:07;108.47;;;30.40;;
805;SDS011;385;48.502;9.230;2022-08-19T15:21:35;105.07;;;28.37;;